Time;durP1;ratioP1;P1;durP2;ratioP2;P2;SDS_P1;SDS_P2;PMS_P1;PMS_P2;Temp;Humidity;BMP_temperature;BMP_pressure;BME280_temperature;BME280_humidity;BME280_pressure;Samples;Min_cycle;Max_cycle;Signal;HPM_P1;HPM_P2
2023/01/10 00:00:33;;;;;;;23.73;5.97;;;21.00;57.20;;;;;;5079652;28;20683;-65
2023/01/10 00:03:00;;;;;;;18.95;4.90;;;20.80;58.30;;;;;;5083330;28;20150;-65
2023/01/10 00:05:27;;;;;;;21.55;5.25;;;20.70;58.10;;;;;;5081660;28;20107;-64
2023/01/10 00:07:53;;;;;;;22.67;5.32;;;20.70;58.50;;;;;;5078811;28;20086;-65
2023/01/10 00:10:20;;;;;;;13.80;5.85;;;20.70;58.70;;;;;;5080894;28;20083;-66
2023/01/10 00:15:35;;;;;;;22.27;5.78;;;20.60;59.50;;;;;;5078165;28;20436;-65
2023/01/10 00:18:02;;;;;;;27.45;6.28;;;20.60;59.90;;;;;;5088644;28;20585;-66
2023/01/10 00:20:29;;;;;;;29.52;7.22;;;20.60;60.40;;;;;;5084002;28;20095;-64
2023/01/10 00:22:55;;;;;;;27.23;6.45;;;20.60;60.70;;;;;;5085960;28;20154;-65
2023/01/10 00:25:23;;;;;;;19.30;6.88;;;20.50;61.30;;;;;;5078237;28;20470;-63
2023/01/10 00:28:18;;;;;;;25.67;7.88;;;20.40;61.50;;;;;;5080620;28;20431;-65
2023/01/10 00:30:41;;;;;;;26.73;7.63;;;20.40;61.90;;;;;;5083781;28;20078;-65
2023/01/10 00:33:11;;;;;;;28.38;8.25;;;20.30;61.70;;;;;;5077000;28;20079;-65
2023/01/10 00:35:37;;;;;;;31.67;9.20;;;20.30;61.30;;;;;;5078274;28;20072;-66
2023/01/10 00:38:07;;;;;;;22.38;8.30;;;20.20;61.50;;;;;;5081020;28;20439;-64
2023/01/10 00:40:33;;;;;;;25.00;8.57;;;20.20;61.50;;;;;;5078548;28;20083;-63
2023/01/10 00:45:46;;;;;;;32.20;7.75;;;20.10;61.40;;;;;;5078606;28;20094;-65
2023/01/10 00:48:14;;;;;;;23.73;7.40;;;20.10;61.60;;;;;;5080558;28;20092;-65
2023/01/10 00:50:40;;;;;;;27.70;6.78;;;19.90;62.50;;;;;;5080208;28;20076;-63
2023/01/10 00:53:06;;;;;;;24.05;6.25;;;19.80;62.60;;;;;;5080838;28;20100;-63
2023/01/10 00:55:35;;;;;;;26.60;6.60;;;19.70;62.50;;;;;;5081078;28;20120;-64
2023/01/10 00:58:02;;;;;;;32.25;6.93;;;19.60;63.70;;;;;;5079540;28;20159;-64
2023/01/10 01:00:29;;;;;;;37.47;7.43;;;19.50;64.00;;;;;;5083861;28;20095;-65
2023/01/10 01:02:56;;;;;;;25.48;7.00;;;19.50;64.70;;;;;;5087591;28;20131;-67
2023/01/10 01:05:22;;;;;;;32.63;7.13;;;19.40;63.90;;;;;;5078824;28;20103;-66
2023/01/10 01:07:50;;;;;;;43.28;10.57;;;19.30;64.30;;;;;;5075478;28;20068;-64
2023/01/10 01:10:26;;;;;;;43.47;8.93;;;19.30;64.60;;;;;;5082252;28;20493;-65
2023/01/10 01:12:58;;;;;;;38.27;11.37;;;19.20;65.00;;;;;;5076992;28;20121;-63
2023/01/10 01:15:25;;;;;;;45.13;11.18;;;19.10;65.10;;;;;;5077603;28;20083;-65
2023/01/10 01:17:52;;;;;;;41.65;12.18;;;19.10;65.40;;;;;;5077230;28;20529;-62
2023/01/10 01:20:20;;;;;;;46.22;13.88;;;19.00;65.60;;;;;;5075861;28;20081;-65
2023/01/10 01:22:46;;;;;;;83.32;16.60;;;18.90;65.60;;;;;;5077468;28;20068;-62
2023/01/10 01:25:13;;;;;;;64.22;13.75;;;18.90;65.70;;;;;;5078011;28;20507;-64
2023/01/10 01:27:39;;;;;;;48.88;13.95;;;18.80;65.90;;;;;;5079080;28;20154;-65
2023/01/10 01:30:08;;;;;;;49.80;12.90;;;18.70;66.20;;;;;;5076835;28;21727;-65
2023/01/10 01:32:34;;;;;;;57.67;14.50;;;18.80;66.40;;;;;;5079440;28;20597;-65
2023/01/10 01:35:01;;;;;;;47.97;16.38;;;18.60;66.30;;;;;;5078896;28;20092;-65
2023/01/10 01:37:27;;;;;;;43.05;10.60;;;18.50;66.40;;;;;;5081180;28;20094;-64
2023/01/10 01:39:54;;;;;;;31.63;9.73;;;18.50;66.50;;;;;;5083949;28;20503;-66
2023/01/10 01:42:25;;;;;;;44.60;9.77;;;18.40;66.80;;;;;;5076653;28;20533;-64
2023/01/10 01:45:22;;;;;;;38.75;12.07;;;18.40;66.90;;;;;;5080710;28;20081;-65
2023/01/10 01:47:56;;;;;;;57.53;13.27;;;18.30;67.20;;;;;;5081780;28;20088;-65
2023/01/10 01:50:33;;;;;;;44.17;11.50;;;18.20;67.20;;;;;;5080176;28;20068;-64
2023/01/10 01:53:03;;;;;;;45.13;11.77;;;18.10;67.60;;;;;;5080665;28;20133;-66
2023/01/10 01:55:31;;;;;;;65.28;11.60;;;18.10;67.80;;;;;;5077334;28;20072;-64
2023/01/10 01:58:03;;;;;;;45.75;11.13;;;18.00;67.70;;;;;;5079584;28;20450;-65
2023/01/10 02:00:29;;;;;;;44.38;12.02;;;18.00;67.70;;;;;;5082156;28;20126;-65
2023/01/10 02:02:59;;;;;;;47.47;12.50;;;18.00;67.80;;;;;;5081461;28;20499;-65
2023/01/10 02:05:25;;;;;;;59.35;12.85;;;18.00;68.10;;;;;;5077471;28;20199;-67
2023/01/10 02:07:55;;;;;;;51.47;11.43;;;18.00;68.30;;;;;;5074822;28;20171;-64
2023/01/10 02:10:32;;;;;;;50.70;11.45;;;17.90;68.40;;;;;;5078062;28;20122;-67
2023/01/10 02:13:04;;;;;;;58.63;10.05;;;17.90;68.70;;;;;;5081479;28;20077;-65
2023/01/10 02:15:30;;;;;;;66.38;11.02;;;17.90;68.90;;;;;;5079082;28;20081;-67
2023/01/10 02:17:58;;;;;;;53.30;9.10;;;17.90;70.00;;;;;;5079167;28;20073;-66
2023/01/10 02:20:26;;;;;;;68.95;10.45;;;17.80;69.40;;;;;;5079949;28;20091;-65
2023/01/10 02:23:29;;;;;;;52.78;8.93;;;17.80;69.60;;;;;;5083584;28;20526;-63
2023/01/10 02:26:05;;;;;;;51.38;10.43;;;17.80;69.80;;;;;;5081136;28;20080;-67
2023/01/10 02:28:53;;;;;;;64.18;9.32;;;17.70;70.20;;;;;;5084415;28;20818;-65
2023/01/10 02:31:43;;;;;;;53.97;9.18;;;17.70;70.50;;;;;;5081415;28;20554;-66
2023/01/10 02:34:27;;;;;;;42.97;9.32;;;17.60;70.90;;;;;;5078475;28;20073;-65
2023/01/10 02:36:57;;;;;;;70.03;9.75;;;17.50;71.20;;;;;;5077464;28;20117;-66
2023/01/10 02:39:58;;;;;;;56.35;8.95;;;17.50;71.60;;;;;;5078994;28;20120;-63
2023/01/10 02:42:35;;;;;;;75.63;10.07;;;17.50;71.80;;;;;;5075906;28;20072;-64
2023/01/10 02:45:10;;;;;;;49.20;9.60;;;17.40;71.90;;;;;;5076052;28;20092;-63
2023/01/10 02:47:40;;;;;;;57.63;9.63;;;17.40;72.10;;;;;;5081044;28;20441;-64
2023/01/10 02:50:30;;;;;;;44.17;9.38;;;17.30;71.90;;;;;;5075687;28;20179;-63
2023/01/10 02:53:02;;;;;;;56.20;11.43;;;17.30;72.10;;;;;;5072605;28;20079;-66
2023/01/10 02:55:55;;;;;;;63.47;17.00;;;17.20;72.40;;;;;;5076716;28;20526;-66
2023/01/10 02:58:58;;;;;;;44.25;13.07;;;17.10;72.60;;;;;;5065046;28;20089;-64
2023/01/10 03:01:37;;;;;;;70.50;17.67;;;17.10;72.70;;;;;;5077385;28;20068;-64
2023/01/10 03:04:38;;;;;;;60.58;16.80;;;17.10;72.60;;;;;;5075051;28;20102;-66
2023/01/10 03:07:26;;;;;;;48.40;20.25;;;17.10;72.60;;;;;;5082810;28;20073;-65
2023/01/10 03:10:13;;;;;;;43.25;13.75;;;17.10;72.90;;;;;;5077344;28;20437;-64
2023/01/10 03:13:18;;;;;;;44.40;12.18;;;17.10;73.20;;;;;;5083120;28;20065;-66
2023/01/10 03:15:47;;;;;;;40.70;8.20;;;17.00;73.40;;;;;;5078583;28;21686;-64
2023/01/10 03:18:22;;;;;;;45.80;8.50;;;17.00;74.10;;;;;;5081443;28;20518;-64
2023/01/10 03:20:51;;;;;;;32.72;8.40;;;17.00;74.40;;;;;;5079570;28;20229;-64
2023/01/10 03:23:21;;;;;;;35.45;11.10;;;17.00;74.80;;;;;;5076504;28;20078;-64
2023/01/10 03:25:49;;;;;;;32.95;10.23;;;16.90;75.10;;;;;;5071365;28;20085;-65
2023/01/10 03:28:23;;;;;;;38.38;10.68;;;17.00;75.60;;;;;;5086712;28;20591;-65
2023/01/10 03:31:01;;;;;;;40.95;10.25;;;16.90;75.90;;;;;;5075918;28;20129;-64
2023/01/10 03:33:30;;;;;;;37.13;9.60;;;17.00;76.40;;;;;;5082104;28;20087;-64
2023/01/10 03:36:35;;;;;;;32.28;9.88;;;16.90;76.70;;;;;;5088434;28;20472;-66
2023/01/10 03:39:19;;;;;;;32.53;9.60;;;16.90;77.40;;;;;;5066159;28;20183;-66
2023/01/10 03:42:07;;;;;;;34.75;12.18;;;16.90;77.80;;;;;;5076660;28;20073;-64
2023/01/10 03:45:00;;;;;;;25.65;9.32;;;16.80;78.30;;;;;;5078334;28;20445;-65
2023/01/10 03:47:40;;;;;;;27.90;9.20;;;16.80;78.90;;;;;;5079874;28;20101;-63
2023/01/10 03:50:14;;;;;;;24.40;7.95;;;16.70;79.70;;;;;;5083307;28;20118;-64
2023/01/10 03:52:42;;;;;;;25.27;7.60;;;16.60;79.70;;;;;;5079590;28;20436;-64
2023/01/10 03:55:15;;;;;;;23.90;8.13;;;16.60;80.10;;;;;;5087002;28;20077;-65
2023/01/10 03:57:44;;;;;;;24.20;7.93;;;16.60;80.50;;;;;;5081403;28;20072;-67
2023/01/10 04:00:12;;;;;;;31.10;8.05;;;16.60;80.80;;;;;;5082527;28;20077;-65
2023/01/10 04:02:38;;;;;;;29.65;8.98;;;16.60;80.80;;;;;;5083848;28;20518;-67
2023/01/10 04:05:05;;;;;;;24.25;7.30;;;16.60;80.80;;;;;;5083199;28;20128;-65
2023/01/10 04:07:32;;;;;;;29.35;8.63;;;16.60;81.10;;;;;;5081784;28;20127;-64
2023/01/10 04:09:58;;;;;;;34.65;10.85;;;16.60;81.30;;;;;;5076377;28;20077;-67
2023/01/10 04:12:25;;;;;;;25.65;9.90;;;16.60;81.40;;;;;;5081969;28;20410;-66
2023/01/10 04:14:51;;;;;;;34.55;9.80;;;16.60;81.70;;;;;;5083488;28;20551;-65
2023/01/10 04:17:18;;;;;;;33.83;9.07;;;16.60;81.80;;;;;;5082549;28;20144;-68
2023/01/10 04:19:45;;;;;;;20.05;6.63;;;16.60;82.20;;;;;;5086237;28;20532;-66
2023/01/10 04:22:11;;;;;;;18.05;6.25;;;16.60;82.50;;;;;;5083952;28;20080;-66
2023/01/10 04:24:39;;;;;;;27.83;6.28;;;16.50;82.80;;;;;;5075918;28;20103;-68
2023/01/10 04:27:06;;;;;;;25.50;6.22;;;16.50;83.40;;;;;;5081361;28;20204;-67
2023/01/10 04:29:32;;;;;;;30.73;7.55;;;16.50;83.70;;;;;;5081773;28;20167;-67
2023/01/10 04:31:59;;;;;;;23.60;7.57;;;16.50;84.10;;;;;;5082273;28;20084;-65
2023/01/10 04:34:26;;;;;;;28.20;8.68;;;16.50;84.50;;;;;;5081740;28;20065;-65
2023/01/10 04:36:52;;;;;;;36.13;12.10;;;16.50;84.80;;;;;;5076665;28;20558;-66
2023/01/10 04:39:18;;;;;;;43.53;15.43;;;16.50;85.10;;;;;;5082909;28;20085;-65
2023/01/10 04:41:45;;;;;;;42.10;18.35;;;16.40;85.40;;;;;;5079218;28;20073;-64
2023/01/10 04:44:11;;;;;;;40.85;15.15;;;16.40;85.80;;;;;;5084410;28;20081;-65
2023/01/10 04:46:38;;;;;;;24.13;10.57;;;16.40;86.20;;;;;;5082255;28;20081;-66
2023/01/10 04:49:05;;;;;;;32.25;11.73;;;16.40;86.50;;;;;;5083614;28;20072;-64
2023/01/10 04:51:31;;;;;;;26.30;9.52;;;16.30;86.70;;;;;;5075835;28;20496;-64
2023/01/10 04:53:57;;;;;;;28.15;7.57;;;16.30;87.10;;;;;;5081188;28;20096;-66
2023/01/10 04:56:24;;;;;;;23.05;8.13;;;16.30;87.40;;;;;;5083404;28;20172;-65
2023/01/10 04:58:50;;;;;;;26.38;7.88;;;16.30;87.60;;;;;;5083988;28;20072;-66
2023/01/10 05:01:21;;;;;;;23.55;6.97;;;16.30;87.70;;;;;;5078640;28;20160;-65
2023/01/10 05:03:49;;;;;;;22.33;5.82;;;16.20;88.00;;;;;;5085505;28;20069;-64
2023/01/10 05:06:16;;;;;;;27.77;6.40;;;16.20;88.40;;;;;;5080932;28;20105;-65
2023/01/10 05:08:44;;;;;;;21.00;6.03;;;16.10;88.70;;;;;;5078347;28;20454;-67
2023/01/10 05:11:11;;;;;;;24.90;7.32;;;16.10;89.10;;;;;;5076676;28;20101;-65
2023/01/10 05:13:38;;;;;;;36.90;12.30;;;16.00;89.10;;;;;;5078898;28;20068;-64
2023/01/10 05:16:05;;;;;;;47.60;18.42;;;16.00;89.40;;;;;;5079464;28;20186;-65
2023/01/10 05:18:32;;;;;;;40.88;16.98;;;15.90;89.80;;;;;;5081655;28;20065;-65
2023/01/10 05:21:04;;;;;;;31.33;14.05;;;15.90;90.00;;;;;;5085613;28;20077;-64
2023/01/10 05:23:30;;;;;;;29.13;12.52;;;15.90;90.20;;;;;;5080761;28;20469;-65
2023/01/10 05:25:56;;;;;;;;;;;15.90;90.30;;;;;;5077134;28;20086;-66
2023/01/10 05:28:23;;;;;;;25.38;10.75;;;15.90;90.40;;;;;;5082187;28;20348;-66
2023/01/10 05:30:50;;;;;;;27.17;11.13;;;15.90;90.70;;;;;;5081382;28;20090;-66
2023/01/10 05:33:16;;;;;;;31.98;11.57;;;15.90;90.70;;;;;;5079681;28;20067;-64
2023/01/10 05:35:42;;;;;;;29.50;11.02;;;15.90;90.80;;;;;;5076823;28;20064;-65
2023/01/10 05:38:09;;;;;;;26.88;9.90;;;15.90;90.90;;;;;;5074255;28;20129;-67
2023/01/10 05:40:35;;;;;;;21.25;9.27;;;15.80;90.90;;;;;;5079734;28;20534;-65
2023/01/10 05:43:02;;;;;;;22.23;9.57;;;15.70;91.20;;;;;;5079807;28;20080;-65
2023/01/10 05:45:28;;;;;;;26.17;8.90;;;15.70;91.30;;;;;;5077396;28;20145;-65
2023/01/10 05:47:55;;;;;;;34.05;13.82;;;15.70;91.70;;;;;;5080480;28;20530;-66
2023/01/10 05:50:21;;;;;;;30.02;14.80;;;15.60;91.30;;;;;;5081122;28;20084;-66
2023/01/10 05:52:48;;;;;;;29.80;10.43;;;15.70;91.50;;;;;;5077163;28;20075;-65
2023/01/10 05:55:14;;;;;;;;;;;15.60;91.50;;;;;;5079920;28;20075;-65
2023/01/10 05:57:40;;;;;;;22.17;8.40;;;15.50;91.70;;;;;;5082710;28;20056;-64
2023/01/10 06:00:07;;;;;;;;;;;15.50;92.00;;;;;;5081461;28;20077;-66
2023/01/10 06:02:33;;;;;;;17.95;7.20;;;15.50;92.10;;;;;;5073857;28;19957;-64
2023/01/10 06:04:59;;;;;;;;;;;15.40;92.20;;;;;;5078480;28;20183;-65
2023/01/10 06:07:25;;;;;;;34.38;14.20;;;15.40;92.40;;;;;;5081930;28;19957;-66
2023/01/10 06:09:52;;;;;;;21.33;9.10;;;15.30;92.50;;;;;;5083025;28;20088;-65
2023/01/10 06:12:18;;;;;;;;;;;15.30;92.70;;;;;;5076368;28;20081;-65
2023/01/10 06:14:45;;;;;;;34.38;8.85;;;15.30;92.80;;;;;;5072602;28;20052;-66
2023/01/10 06:17:12;;;;;;;22.52;8.23;;;15.30;93.00;;;;;;5079873;28;20092;-67
2023/01/10 06:19:38;;;;;;;22.05;8.85;;;15.30;93.00;;;;;;5083663;28;20115;-65
2023/01/10 06:22:04;;;;;;;;;;;15.30;93.10;;;;;;5075610;28;20438;-66
2023/01/10 06:24:31;;;;;;;23.70;6.90;;;15.20;93.10;;;;;;5077694;28;20016;-66
2023/01/10 06:26:57;;;;;;;18.30;6.82;;;15.20;93.10;;;;;;5082528;28;20069;-66
2023/01/10 06:29:23;;;;;;;;;;;15.10;93.20;;;;;;5083385;28;20065;-67
2023/01/10 06:31:49;;;;;;;20.20;6.78;;;15.10;93.20;;;;;;5075814;28;20344;-67
2023/01/10 06:34:16;;;;;;;20.95;8.85;;;15.00;93.20;;;;;;5083052;28;20141;-64
2023/01/10 06:36:42;;;;;;;;;;;14.90;93.20;;;;;;5080012;28;20062;-64
2023/01/10 06:39:08;;;;;;;29.35;9.30;;;14.90;93.10;;;;;;5081051;28;19969;-64
2023/01/10 06:41:35;;;;;;;26.25;10.73;;;14.90;93.20;;;;;;5076184;28;20534;-64
2023/01/10 06:44:01;;;;;;;32.05;11.40;;;14.90;93.10;;;;;;5080974;28;20136;-64
2023/01/10 06:46:27;;;;;;;;;;;14.80;93.20;;;;;;5076738;28;20085;-64
2023/01/10 06:48:54;;;;;;;19.63;9.50;;;14.80;93.20;;;;;;5079383;28;20005;-64
2023/01/10 06:51:20;;;;;;;22.83;10.23;;;14.70;93.20;;;;;;5079861;28;20081;-66
2023/01/10 06:53:46;;;;;;;;;;;14.60;93.40;;;;;;5075246;28;20076;-64
2023/01/10 06:56:13;;;;;;;22.77;7.90;;;14.70;93.40;;;;;;5082916;28;20013;-64
2023/01/10 06:58:39;;;;;;;18.42;10.88;;;14.60;93.50;;;;;;5077793;28;20073;-66
2023/01/10 07:01:16;;;;;;;21.88;9.50;;;14.60;93.70;;;;;;5081017;28;20126;-66
2023/01/10 07:03:43;;;;;;;16.48;7.95;;;14.60;93.80;;;;;;5076035;28;20533;-64
2023/01/10 07:06:09;;;;;;;19.70;7.75;;;14.70;93.90;;;;;;5080162;28;20124;-64
2023/01/10 07:08:41;;;;;;;19.30;8.90;;;14.60;93.90;;;;;;5075003;28;20062;-65
2023/01/10 07:11:10;;;;;;;15.13;6.90;;;14.60;94.30;;;;;;5073801;28;20077;-64
2023/01/10 07:13:37;;;;;;;22.23;10.65;;;14.60;94.50;;;;;;5072899;28;20438;-64
2023/01/10 07:16:06;;;;;;;76.15;67.05;;;14.40;94.70;;;;;;5077930;28;20497;-65
2023/01/10 07:18:34;;;;;;;60.65;54.00;;;14.40;95.10;;;;;;5072025;28;20101;-64
2023/01/10 07:21:01;;;;;;;45.88;39.33;;;14.40;95.30;;;;;;5078063;28;20099;-65
2023/01/10 07:23:30;;;;;;;24.85;15.63;;;14.50;95.40;;;;;;5074417;28;20081;-66
2023/01/10 07:25:57;;;;;;;13.82;9.57;;;14.50;95.70;;;;;;5073968;28;20092;-65
2023/01/10 07:28:24;;;;;;;20.65;8.98;;;14.40;96.10;;;;;;5077029;28;20095;-65
2023/01/10 07:30:50;;;;;;;;;;;14.40;96.70;;;;;;5074863;28;20105;-64
2023/01/10 07:33:16;;;;;;;20.73;10.50;;;14.30;97.00;;;;;;5073413;28;19971;-64
2023/01/10 07:35:43;;;;;;;21.10;11.18;;;14.30;97.30;;;;;;5071553;28;20543;-64
2023/01/10 07:38:09;;;;;;;17.45;10.05;;;14.30;97.40;;;;;;5077187;28;20072;-64
2023/01/10 07:40:35;;;;;;;;;;;14.30;97.60;;;;;;5075493;28;20117;-65
2023/01/10 07:43:02;;;;;;;19.20;9.10;;;14.30;97.80;;;;;;5075702;28;20011;-65
2023/01/10 07:45:30;;;;;;;17.98;7.95;;;14.30;98.00;;;;;;5073683;28;20077;-66
2023/01/10 07:48:01;;;;;;;23.30;8.50;;;14.30;98.30;;;;;;5074382;28;20100;-65
2023/01/10 07:50:30;;;;;;;17.73;8.00;;;14.30;98.30;;;;;;5078758;28;20065;-64
2023/01/10 07:52:57;;;;;;;17.52;8.30;;;14.40;98.40;;;;;;5074626;28;20066;-65
2023/01/10 07:55:24;;;;;;;16.02;7.82;;;14.30;98.80;;;;;;5069892;28;20480;-64
2023/01/10 07:57:50;;;;;;;;;;;14.20;99.30;;;;;;5081864;28;20076;-65
2023/01/10 08:00:18;;;;;;;20.27;7.40;;;14.20;99.50;;;;;;5074746;28;19957;-66
2023/01/10 08:02:44;;;;;;;17.17;7.97;;;14.20;99.90;;;;;;5078725;28;20077;-66
2023/01/10 08:05:11;;;;;;;22.20;8.13;;;14.20;99.90;;;;;;5077370;28;20775;-65
2023/01/10 08:07:37;;;;;;;20.17;8.27;;;14.10;99.90;;;;;;5073206;28;20155;-65
2023/01/10 08:10:05;;;;;;;16.77;7.22;;;14.20;99.90;;;;;;5075298;28;20068;-64
2023/01/10 08:12:32;;;;;;;14.40;7.10;;;14.10;99.90;;;;;;5078170;28;20081;-64
2023/01/10 08:14:58;;;;;;;16.90;7.63;;;14.10;99.90;;;;;;5084768;28;20074;-63
2023/01/10 08:17:25;;;;;;;13.35;7.25;;;14.10;99.90;;;;;;5077711;28;20065;-65
2023/01/10 08:19:52;;;;;;;15.57;7.38;;;14.10;99.90;;;;;;5079924;28;20506;-65
2023/01/10 08:22:18;;;;;;;17.80;7.68;;;14.10;99.90;;;;;;5078152;28;20069;-65
2023/01/10 08:24:44;;;;;;;;;;;14.10;99.90;;;;;;5081938;28;20095;-65
2023/01/10 08:27:10;;;;;;;15.40;7.22;;;14.10;99.90;;;;;;5081906;28;20436;-65
2023/01/10 08:29:37;;;;;;;17.67;7.80;;;14.00;99.90;;;;;;5077396;28;20073;-64
2023/01/10 08:32:03;;;;;;;;;;;14.00;99.90;;;;;;5078837;28;20538;-63
2023/01/10 08:34:30;;;;;;;13.57;6.47;;;14.00;99.90;;;;;;5079229;28;20003;-65
2023/01/10 08:36:56;;;;;;;17.65;7.05;;;14.00;99.90;;;;;;5083331;28;20069;-64
2023/01/10 08:39:25;;;;;;;12.32;6.72;;;14.00;99.90;;;;;;5080848;28;20073;-65
2023/01/10 08:41:52;;;;;;;14.38;7.45;;;14.00;99.90;;;;;;5080290;28;20076;-66
2023/01/10 08:44:19;;;;;;;13.57;7.18;;;14.00;99.90;;;;;;5080271;28;20083;-67
2023/01/10 08:46:45;;;;;;;16.90;7.70;;;14.00;99.90;;;;;;5079220;28;21355;-65
2023/01/10 08:49:12;;;;;;;15.43;6.85;;;14.00;99.90;;;;;;5079921;28;20077;-66
2023/01/10 08:51:38;;;;;;;;;;;13.90;99.90;;;;;;5079749;28;20096;-65
2023/01/10 08:54:04;;;;;;;17.05;7.18;;;13.90;99.90;;;;;;5077802;28;19973;-64
2023/01/10 08:56:31;;;;;;;16.23;8.00;;;13.80;99.90;;;;;;5078365;28;20061;-65
2023/01/10 08:58:57;;;;;;;;;;;13.80;99.90;;;;;;5076038;28;20069;-66
2023/01/10 09:01:23;;;;;;;14.95;6.78;;;13.70;99.90;;;;;;5080296;28;19972;-64
2023/01/10 09:03:50;;;;;;;15.73;7.30;;;13.70;99.90;;;;;;5073484;28;20099;-68
2023/01/10 09:06:17;;;;;;;16.45;6.50;;;13.60;99.90;;;;;;5077519;28;20104;-67
2023/01/10 09:08:43;;;;;;;;;;;13.70;99.90;;;;;;5076547;28;20147;-66
2023/01/10 09:11:09;;;;;;;12.52;6.25;;;13.60;99.90;;;;;;5080132;28;20055;-65
2023/01/10 09:13:36;;;;;;;20.85;6.70;;;13.40;99.90;;;;;;5075717;28;20069;-64
2023/01/10 09:16:02;;;;;;;14.30;6.55;;;13.40;99.90;;;;;;5077560;28;20118;-65
2023/01/10 09:18:29;;;;;;;18.73;8.10;;;13.50;99.90;;;;;;5074743;28;20069;-65
2023/01/10 09:20:55;;;;;;;;;;;13.50;99.90;;;;;;5078414;28;20174;-65
2023/01/10 09:23:23;;;;;;;14.45;7.40;;;13.50;99.90;;;;;;5076363;28;20088;-66
2023/01/10 09:25:52;;;;;;;11.73;6.60;;;13.50;99.90;;;;;;5079995;28;20454;-65
2023/01/10 09:28:21;;;;;;;14.77;7.28;;;13.50;99.90;;;;;;5080449;28;20214;-66
2023/01/10 09:30:47;;;;;;;19.67;7.85;;;13.50;99.90;;;;;;5081472;28;20162;-66
2023/01/10 09:33:14;;;;;;;24.10;12.02;;;13.30;99.90;;;;;;5077174;28;20084;-66
2023/01/10 09:35:42;;;;;;;27.65;14.98;;;13.30;99.90;;;;;;5075226;28;20592;-65
2023/01/10 09:38:16;;;;;;;29.42;19.27;;;13.30;99.90;;;;;;5075115;28;20124;-66
2023/01/10 09:41:18;;;;;;;32.60;21.58;;;13.30;99.90;;;;;;5075669;28;20073;-65
2023/01/10 09:43:57;;;;;;;27.98;19.88;;;13.30;99.90;;;;;;5076115;28;20146;-65
2023/01/10 09:46:47;;;;;;;30.85;20.23;;;13.10;99.90;;;;;;5076672;28;20545;-64
2023/01/10 09:49:46;;;;;;;33.78;17.88;;;13.10;99.90;;;;;;5072662;28;20494;-66
2023/01/10 09:52:24;;;;;;;27.40;15.50;;;13.10;99.90;;;;;;5072456;28;20198;-65
2023/01/10 09:54:54;;;;;;;27.40;16.75;;;13.10;99.90;;;;;;5072448;28;20069;-65
2023/01/10 09:57:22;;;;;;;24.83;15.70;;;13.00;99.90;;;;;;5070814;28;20069;-61
2023/01/10 09:59:52;;;;;;;24.27;15.32;;;13.00;99.90;;;;;;5073934;28;20135;-65
2023/01/10 10:02:33;;;;;;;24.33;15.30;;;12.90;99.90;;;;;;5072106;28;20072;-64
2023/01/10 10:05:11;;;;;;;28.55;15.00;;;12.80;99.90;;;;;;5074651;28;20150;-66
2023/01/10 10:07:38;;;;;;;20.17;12.80;;;12.80;99.90;;;;;;5071609;28;20073;-65
2023/01/10 10:10:11;;;;;;;29.13;12.15;;;12.90;99.90;;;;;;5073009;28;20065;-67
2023/01/10 10:12:54;;;;;;;15.52;10.13;;;12.90;99.90;;;;;;5073991;28;20135;-65
2023/01/10 10:15:38;;;;;;;18.55;8.85;;;12.90;99.90;;;;;;5072535;28;20073;-63
2023/01/10 10:18:27;;;;;;;15.05;7.68;;;12.80;99.90;;;;;;5073593;28;20079;-66
2023/01/10 10:21:08;;;;;;;13.77;7.97;;;12.70;99.90;;;;;;5092820;28;20227;-64
2023/01/10 10:23:50;;;;;;;11.85;8.07;;;12.60;99.90;;;;;;5072994;28;20150;-64
2023/01/10 10:26:41;;;;;;;15.88;6.70;;;12.60;99.90;;;;;;5070148;28;20092;-66
2023/01/10 10:29:35;;;;;;;13.70;6.45;;;12.70;99.90;;;;;;5070826;28;20538;-65
2023/01/10 10:32:26;;;;;;;17.63;6.88;;;12.70;99.90;;;;;;5079106;28;20127;-65
2023/01/10 10:35:01;;;;;;;15.50;6.68;;;12.60;99.90;;;;;;5073586;28;20073;-65
2023/01/10 10:37:36;;;;;;;15.50;6.38;;;12.70;99.90;;;;;;5073395;28;20073;-65
2023/01/10 10:40:16;;;;;;;20.73;6.70;;;12.70;99.90;;;;;;5076341;28;20100;-65
2023/01/10 10:42:46;;;;;;;16.35;6.47;;;12.80;99.90;;;;;;5073867;28;20508;-64
2023/01/10 10:45:39;;;;;;;17.42;6.88;;;12.70;99.90;;;;;;5073527;28;20528;-64
2023/01/10 10:48:30;;;;;;;12.13;5.68;;;12.60;99.90;;;;;;5065016;28;20093;-65
2023/01/10 10:51:02;;;;;;;19.15;6.68;;;12.60;99.90;;;;;;5069476;28;20097;-65
2023/01/10 10:53:30;;;;;;;16.35;6.80;;;12.60;99.90;;;;;;5069857;28;20070;-64
2023/01/10 10:55:57;;;;;;;14.25;6.45;;;12.60;99.90;;;;;;5071496;28;20076;-65
2023/01/10 10:58:24;;;;;;;17.90;6.82;;;12.40;99.90;;;;;;5069876;28;20465;-65
2023/01/10 11:00:52;;;;;;;18.35;6.90;;;12.40;99.90;;;;;;5071579;28;20065;-64
2023/01/10 11:03:36;;;;;;;18.83;7.05;;;12.50;99.90;;;;;;5070118;28;20122;-65
2023/01/10 11:06:06;;;;;;;17.95;6.50;;;12.50;99.90;;;;;;5067709;28;20250;-65
2023/01/10 11:08:41;;;;;;;16.15;7.07;;;12.40;99.90;;;;;;5071735;28;20072;-65
2023/01/10 11:11:21;;;;;;;15.52;7.15;;;12.40;99.90;;;;;;5070572;28;20780;-64
2023/01/10 11:13:55;;;;;;;12.90;5.68;;;12.40;99.90;;;;;;5070130;28;20436;-65
2023/01/10 11:16:27;;;;;;;14.82;5.93;;;12.40;99.90;;;;;;5067887;28;20081;-64
2023/01/10 11:19:12;;;;;;;21.58;6.97;;;12.50;99.90;;;;;;5071277;28;20076;-63
2023/01/10 11:21:40;;;;;;;20.05;7.07;;;12.40;99.90;;;;;;5069563;28;20085;-65
2023/01/10 11:24:38;;;;;;;20.75;6.70;;;12.40;99.90;;;;;;5070530;28;20100;-64
2023/01/10 11:27:19;;;;;;;17.10;6.80;;;12.40;99.90;;;;;;5068673;28;20073;-65
2023/01/10 11:29:51;;;;;;;14.80;6.75;;;12.30;99.90;;;;;;5073669;28;20139;-65
2023/01/10 11:32:21;;;;;;;16.95;7.18;;;12.20;99.90;;;;;;5073487;28;20108;-65
2023/01/10 11:35:00;;;;;;;17.98;7.38;;;12.10;99.90;;;;;;5070123;28;20072;-63
2023/01/10 11:37:32;;;;;;;20.10;7.20;;;12.20;99.90;;;;;;5071221;28;20073;-65
2023/01/10 11:40:22;;;;;;;20.17;7.70;;;12.20;99.90;;;;;;5073985;28;20077;-65
2023/01/10 11:42:50;;;;;;;15.90;7.50;;;12.20;99.90;;;;;;5071001;28;20065;-66
2023/01/10 11:45:17;;;;;;;22.88;7.57;;;12.10;99.90;;;;;;5075197;28;20084;-65
2023/01/10 11:47:45;;;;;;;;;;;12.00;99.90;;;;;;5071169;28;20176;-63
2023/01/10 11:50:28;;;;;;;22.35;8.40;;;12.10;99.90;;;;;;5070583;28;19965;-63
2023/01/10 11:52:55;;;;;;;22.55;9.98;;;12.00;99.90;;;;;;5072289;28;20142;-64
2023/01/10 11:55:33;;;;;;;25.52;13.00;;;11.90;99.90;;;;;;5080099;28;20073;-64
2023/01/10 11:58:07;;;;;;;26.00;14.25;;;12.00;99.90;;;;;;5074748;28;20183;-64
2023/01/10 12:00:46;;;;;;;33.30;16.25;;;11.90;99.90;;;;;;5074384;28;20068;-63
2023/01/10 12:03:28;;;;;;;30.77;15.15;;;11.90;99.90;;;;;;5072815;28;20073;-66
2023/01/10 12:06:02;;;;;;;33.95;15.90;;;11.90;99.90;;;;;;5074438;28;20542;-66
2023/01/10 12:08:31;;;;;;;29.83;14.23;;;11.90;99.90;;;;;;5072177;28;20525;-66
2023/01/10 12:11:20;;;;;;;28.27;13.93;;;11.80;99.90;;;;;;5072391;28;20858;-64
2023/01/10 12:13:50;;;;;;;23.15;12.48;;;11.80;99.90;;;;;;5070114;28;20154;-64
2023/01/10 12:16:20;;;;;;;28.35;12.20;;;11.80;99.90;;;;;;5073990;28;20096;-65
2023/01/10 12:18:53;;;;;;;30.75;13.40;;;11.70;99.90;;;;;;5076353;28;20189;-64
2023/01/10 12:21:38;;;;;;;24.33;12.13;;;11.80;99.90;;;;;;5078562;28;20073;-66
2023/01/10 12:24:33;;;;;;;26.90;13.38;;;11.70;99.90;;;;;;5074551;28;20084;-64
2023/01/10 12:27:02;;;;;;;30.80;15.38;;;11.80;99.90;;;;;;5076460;28;20077;-66
2023/01/10 12:29:38;;;;;;;34.22;17.77;;;11.80;99.90;;;;;;5073750;28;20312;-66
2023/01/10 12:32:15;;;;;;;32.15;17.15;;;11.80;99.90;;;;;;5073851;28;20064;-68
2023/01/10 12:34:45;;;;;;;32.72;18.10;;;11.80;99.90;;;;;;5076369;28;20103;-66
2023/01/10 12:37:23;;;;;;;36.00;19.38;;;11.70;99.90;;;;;;5074061;28;20530;-64
2023/01/10 12:40:24;;;;;;;36.63;19.30;;;11.70;99.90;;;;;;5074435;28;20126;-65
2023/01/10 12:46:05;;;;;;;37.90;17.33;;;11.60;99.90;;;;;;5071837;28;20092;-63
2023/01/10 12:48:52;;;;;;;32.30;16.92;;;11.60;99.90;;;;;;5073441;28;20084;-64
2023/01/10 12:51:23;;;;;;;31.25;15.13;;;11.60;99.90;;;;;;5071897;28;20069;-65
2023/01/10 12:54:23;;;;;;;31.35;15.57;;;11.50;99.90;;;;;;5072371;28;20134;-64
2023/01/10 12:56:50;;;;;;;27.90;13.98;;;11.50;99.90;;;;;;5070951;28;20107;-64
2023/01/10 12:59:37;;;;;;;28.02;13.15;;;11.50;99.90;;;;;;5073005;28;20111;-63
2023/01/10 13:02:11;;;;;;;30.38;11.70;;;11.40;99.90;;;;;;5071226;28;20544;-64
2023/01/10 13:04:40;;;;;;;22.08;10.65;;;11.60;99.90;;;;;;5070772;28;20203;-62
2023/01/10 13:07:10;;;;;;;24.83;12.02;;;11.60;99.90;;;;;;5071304;28;20085;-68
2023/01/10 13:09:40;;;;;;;27.92;11.38;;;11.50;99.90;;;;;;5073785;28;20069;-63